Waterbury, CT

8:30 AM EDT on March 28, 2015 (GMT -0400)
Overlook | | Change Station
CLOSE
Current Station
Personal Weather Station
Location: Waterbury, CT
Elevation: 577 ft
Nearby Weather Stations

Elev 577 ft 41.58 °N, 73.04 °W | Updated 22 seconds ago

Snow
Snow
29.8 °F
Feels Like 30 °F
N
3.0
Wind Variable Wind from NNW
Gusts 7.0 mph

Today
High -- | Low -- °F
--% Chance of Precip.
Yesterday
High -- | Low -- °F
Precip. -- in
6:42 AM 7:12 PM
First Quarter, 62% visible
Pressure 29.76 in
Visibility 1.8 miles
Clouds Overcast 1200 ft
Windchill 30 °F
Dew Point 28 °F
Humidity 92%
Rainfall 0.00 in
Snow Depth Not available.
UV 0 out of 12
Pollen 3.60 out of 12
Air Quality Not available.
Flu Activity Not available.
METAR KOXC 281215Z 34009KT 1 3/4SM OVC012 M01/M07 A2976 RMK AO1

More Conditions Fewer Conditions

Pressure 29.76 in
Visibility 1.8 miles
Clouds Overcast 1200 ft
Windchill 30 °F
Dew Point 28 °F
Humidity 92%
Rainfall 0.00 in
Snow Depth Not available.
UV 0 out of 12
Pollen 3.60 out of 12
Air Quality Not available.
Flu Activity Not available.
METAR KOXC 281215Z 34009KT 1 3/4SM OVC012 M01/M07 A2976 RMK AO1

More Conditions Fewer Conditions

10-Day Weather Forecast

Almanac

Astronomy

Mar. 28, 2015 Rise Set
Actual Time
Civil Twilight
Nautical Twilight
Astronomical Twilight
Moon
Length of Visible Light
Length of Day
Tomorrow will be .
, % of the Moon is Illuminated

Today's Extremes

State Highs State Lows

Community

WunderPhotos

Upload Photos

1,808,966 photos uploaded!

WunderBlogs® & News

Nearby

Air Quality

  Air Quality AQ Index Pollutant
Not available.

Snow Depth

Station Depth Elevation

Earthquake Activity

City Distance Mag. Time & Date
Minimum magnitude displayed is 2.5.

Coastal Water Temperatures

Place Temperature

Stations

Nearby Weather Stations

Station Location Temp. Windchill Dew Point Humidity Wind Precip. Elev Updated Type